Time;durP1;ratioP1;P1;durP2;ratioP2;P2;SDS_P1;SDS_P2;PMS_P1;PMS_P2;Temp;Humidity;BMP_temperature;BMP_pressure;BME280_temperature;BME280_humidity;BME280_pressure;Samples;Min_cycle;Max_cycle;Signal;HPM_P1;HPM_P2
2022/01/04 00:00:58;;;;;;;8.18;5.20;;;7.90;99.90;;;;;;5091065;28;20428;-59
2022/01/04 00:03:24;;;;;;;10.32;4.53;;;7.90;99.90;;;;;;5089978;28;20690;-59
2022/01/04 00:05:49;;;;;;;10.65;4.20;;;7.90;99.90;;;;;;5090710;28;20043;-58
2022/01/04 00:08:15;;;;;;;7.30;3.65;;;8.10;99.90;;;;;;5090753;28;20047;-58
2022/01/04 00:10:41;;;;;;;4.30;2.90;;;8.20;99.90;;;;;;5091260;28;20028;-58
2022/01/04 00:15:47;;;;;;;7.93;3.75;;;8.40;99.90;;;;;;5089987;28;20068;-59
2022/01/04 00:18:13;;;;;;;3.72;2.95;;;8.60;99.90;;;;;;5090386;28;20367;-59
2022/01/04 00:20:39;;;;;;;5.38;2.50;;;8.80;99.90;;;;;;5067724;28;20055;-58
2022/01/04 00:23:05;;;;;;;7.82;3.60;;;8.80;99.90;;;;;;5079083;28;20399;-59
2022/01/04 00:25:31;;;;;;;8.27;4.10;;;8.90;99.90;;;;;;5090788;28;20097;-59
2022/01/04 00:27:58;;;;;;;4.60;2.60;;;9.00;99.90;;;;;;5091160;28;20036;-59
2022/01/04 00:30:28;;;;;;;2.97;2.50;;;9.10;99.90;;;;;;5094065;28;20502;-58
2022/01/04 00:32:57;;;;;;;3.15;2.25;;;9.10;99.90;;;;;;5095248;28;20039;-59
2022/01/04 00:35:23;;;;;;;5.35;2.15;;;9.30;99.90;;;;;;5094969;28;20096;-58
2022/01/04 00:37:49;;;;;;;3.60;2.92;;;9.50;99.90;;;;;;5094849;28;20035;-58
2022/01/04 00:40:14;;;;;;;8.18;2.10;;;9.60;99.90;;;;;;5094089;28;20043;-58
2022/01/04 00:42:40;;;;;;;2.70;1.70;;;9.60;99.90;;;;;;5094784;28;20028;-58
2022/01/04 00:45:06;;;;;;;5.55;2.30;;;9.60;99.90;;;;;;5093778;28;20081;-58
2022/01/04 00:50:25;;;;;;;5.30;3.17;;;9.40;99.90;;;;;;5068955;28;20032;-59
2022/01/04 00:52:51;;;;;;;3.92;2.75;;;9.20;99.90;;;;;;5093576;28;20103;-59
2022/01/04 00:55:17;;;;;;;7.97;3.13;;;9.00;99.90;;;;;;5093739;28;20075;-59
2022/01/04 00:57:43;;;;;;;5.97;2.50;;;8.70;99.90;;;;;;5093747;28;20024;-58
2022/01/04 01:00:12;;;;;;;7.15;3.13;;;8.60;99.90;;;;;;5094288;28;20024;-59
2022/01/04 01:02:37;;;;;;;2.35;2.15;;;8.50;99.90;;;;;;5076309;28;20736;-58
2022/01/04 01:05:04;;;;;;;2.92;2.17;;;8.60;99.90;;;;;;5094627;28;20030;-58
2022/01/04 01:07:30;;;;;;;1.85;1.75;;;8.50;99.90;;;;;;5094164;28;20051;-59
2022/01/04 01:10:18;;;;;;;2.05;1.83;;;8.60;99.90;;;;;;5094296;28;20455;-58
2022/01/04 01:12:44;;;;;;;7.47;1.88;;;8.70;99.90;;;;;;5094378;28;20028;-59
2022/01/04 01:15:10;;;;;;;4.70;1.95;;;8.60;99.90;;;;;;5094513;28;20028;-59
2022/01/04 01:17:37;;;;;;;2.63;2.38;;;8.60;99.90;;;;;;5094188;28;20436;-59
2022/01/04 01:20:05;;;;;;;2.00;1.80;;;8.60;99.90;;;;;;5094489;28;20110;-58
2022/01/04 01:22:30;;;;;;;7.25;2.83;;;8.60;99.90;;;;;;5093798;28;20043;-59
2022/01/04 01:24:56;;;;;;;3.08;2.50;;;8.60;99.90;;;;;;5093789;28;20040;-59
2022/01/04 01:27:22;;;;;;;4.32;2.85;;;8.60;99.90;;;;;;5093719;28;20060;-59
2022/01/04 01:29:47;;;;;;;4.60;3.72;;;8.60;99.90;;;;;;5094235;28;20447;-59
2022/01/04 01:32:13;;;;;;;3.33;2.78;;;8.50;99.90;;;;;;5075175;28;20110;-59
2022/01/04 01:34:39;;;;;;;3.58;2.00;;;8.50;99.90;;;;;;5093461;28;20123;-59
2022/01/04 01:37:04;;;;;;;3.65;2.53;;;8.60;99.90;;;;;;5093864;28;20048;-58
2022/01/04 01:39:30;;;;;;;3.75;2.47;;;8.50;99.90;;;;;;5093188;28;20050;-58
2022/01/04 01:41:56;;;;;;;9.30;2.55;;;8.60;99.90;;;;;;5093754;28;20016;-59
2022/01/04 01:44:22;;;;;;;6.70;2.90;;;8.40;99.90;;;;;;5093663;28;20029;-59
2022/01/04 01:46:48;;;;;;;3.63;2.83;;;8.40;99.90;;;;;;5093825;28;20080;-59
2022/01/04 01:49:14;;;;;;;6.30;2.17;;;8.40;99.90;;;;;;5093146;28;20514;-59
2022/01/04 01:51:39;;;;;;;5.07;2.50;;;8.40;99.90;;;;;;5093560;28;20127;-59
2022/01/04 01:54:05;;;;;;;3.72;2.00;;;8.30;99.90;;;;;;5092814;28;20166;-59
2022/01/04 01:56:31;;;;;;;3.20;2.10;;;8.30;99.90;;;;;;5093077;28;20428;-59
2022/01/04 01:58:57;;;;;;;3.50;2.33;;;8.20;99.90;;;;;;5092866;28;20390;-59
2022/01/04 02:01:23;;;;;;;3.33;2.30;;;8.20;99.90;;;;;;5091604;28;20032;-56
2022/01/04 02:03:49;;;;;;;3.20;2.20;;;8.20;99.90;;;;;;5092513;28;20031;-58
2022/01/04 02:06:15;;;;;;;3.35;2.25;;;8.10;99.90;;;;;;5092675;28;20018;-59
2022/01/04 02:08:41;;;;;;;2.88;2.38;;;8.10;99.90;;;;;;5092177;28;20111;-59
2022/01/04 02:11:08;;;;;;;3.38;2.25;;;7.90;99.90;;;;;;5092944;28;20115;-59
2022/01/04 02:13:34;;;;;;;2.83;2.25;;;7.90;99.90;;;;;;5092106;28;20083;-58
2022/01/04 02:16:00;;;;;;;2.83;2.45;;;7.80;99.90;;;;;;5092473;28;20196;-58
2022/01/04 02:18:25;;;;;;;6.47;2.95;;;7.80;99.90;;;;;;5091962;28;20103;-58
2022/01/04 02:20:51;;;;;;;2.70;2.50;;;7.70;99.90;;;;;;5092271;28;20020;-58
2022/01/04 02:23:17;;;;;;;2.60;2.28;;;7.60;99.90;;;;;;5092015;28;20023;-58
2022/01/04 02:25:42;;;;;;;10.40;2.90;;;7.60;99.90;;;;;;5092903;28;20070;-59
2022/01/04 02:28:08;;;;;;;2.20;2.10;;;7.60;99.90;;;;;;5092598;28;20020;-59
2022/01/04 02:30:34;;;;;;;2.58;2.38;;;7.50;99.90;;;;;;5092340;28;20043;-59
2022/01/04 02:32:59;;;;;;;3.20;2.63;;;7.50;99.90;;;;;;5092026;28;20019;-59
2022/01/04 02:35:30;;;;;;;3.10;2.72;;;7.40;99.90;;;;;;5091203;28;20471;-59
2022/01/04 02:37:57;;;;;;;3.63;2.80;;;7.40;99.90;;;;;;5091790;28;20020;-59
2022/01/04 02:40:24;;;;;;;4.20;2.28;;;7.40;99.90;;;;;;5091611;28;20016;-59
2022/01/04 02:42:50;;;;;;;9.00;2.83;;;7.50;99.90;;;;;;5091220;28;20402;-59
2022/01/04 02:45:16;;;;;;;7.20;2.55;;;7.40;99.90;;;;;;5090904;28;20028;-59
2022/01/04 02:47:42;;;;;;;4.25;2.42;;;7.50;99.90;;;;;;5090806;28;20020;-59
2022/01/04 02:50:09;;;;;;;7.32;2.83;;;7.40;99.90;;;;;;5091138;28;20459;-58
2022/01/04 02:52:35;;;;;;;3.38;2.53;;;7.40;99.90;;;;;;5090168;28;20035;-59
2022/01/04 02:55:13;;;;;;;3.75;2.35;;;7.40;99.90;;;;;;5073357;28;20479;-59
2022/01/04 02:57:40;;;;;;;3.15;2.30;;;7.30;99.90;;;;;;5091323;28;20044;-59
2022/01/04 03:00:09;;;;;;;8.82;2.55;;;7.20;99.90;;;;;;5091662;28;20028;-58
2022/01/04 03:02:35;;;;;;;3.25;2.90;;;7.20;99.90;;;;;;5091184;28;20023;-59
2022/01/04 03:05:01;;;;;;;5.68;3.05;;;7.10;99.90;;;;;;5091682;28;20090;-59
2022/01/04 03:07:27;;;;;;;2.65;2.30;;;7.10;99.90;;;;;;5071794;28;20431;-58
2022/01/04 03:09:53;;;;;;;3.60;2.83;;;7.10;99.90;;;;;;5089753;28;20032;-59
2022/01/04 03:12:19;;;;;;;3.05;2.60;;;7.10;99.90;;;;;;5090587;28;20055;-59
2022/01/04 03:14:45;;;;;;;4.30;2.85;;;7.10;99.90;;;;;;5091333;28;20028;-59
2022/01/04 03:17:11;;;;;;;3.28;2.90;;;7.00;99.90;;;;;;5091481;28;20360;-59
2022/01/04 03:19:37;;;;;;;4.13;2.72;;;6.90;99.90;;;;;;5090422;28;20528;-59
2022/01/04 03:22:03;;;;;;;3.45;2.80;;;6.90;99.90;;;;;;5071768;28;20119;-59
2022/01/04 03:24:35;;;;;;;3.60;2.95;;;6.90;99.90;;;;;;5091226;28;20568;-59
2022/01/04 03:27:00;;;;;;;5.78;2.88;;;6.90;99.90;;;;;;5092112;28;20085;-58
2022/01/04 03:29:26;;;;;;;5.45;3.33;;;6.90;99.90;;;;;;5091528;28;20044;-59
2022/01/04 03:31:54;;;;;;;6.20;2.53;;;6.90;99.90;;;;;;5091968;28;20032;-59
2022/01/04 03:34:20;;;;;;;4.53;2.92;;;7.00;99.90;;;;;;5091411;28;20039;-58
2022/01/04 03:36:46;;;;;;;3.05;2.80;;;6.90;99.90;;;;;;5091382;28;20024;-59
2022/01/04 03:39:12;;;;;;;2.80;2.60;;;6.90;99.90;;;;;;5091679;28;20125;-58
2022/01/04 03:41:41;;;;;;;2.85;2.45;;;6.90;99.90;;;;;;5073565;28;20093;-59
2022/01/04 03:44:10;;;;;;;2.90;2.60;;;6.90;99.90;;;;;;5073394;28;20028;-59
2022/01/04 03:46:36;;;;;;;3.95;2.65;;;6.90;99.90;;;;;;5091541;28;20082;-59
2022/01/04 03:49:04;;;;;;;2.28;2.08;;;6.90;99.90;;;;;;5091202;28;20024;-59
2022/01/04 03:51:29;;;;;;;3.25;3.05;;;6.90;99.90;;;;;;5091047;28;20096;-59
2022/01/04 03:53:55;;;;;;;3.33;2.70;;;6.90;99.90;;;;;;5071894;28;20028;-59
2022/01/04 03:56:21;;;;;;;4.25;2.92;;;6.90;99.90;;;;;;5089781;28;20039;-59
2022/01/04 03:58:48;;;;;;;5.15;2.63;;;6.90;99.90;;;;;;5090272;28;20481;-59
2022/01/04 04:01:14;;;;;;;4.82;2.55;;;6.90;99.90;;;;;;5090665;28;20028;-59
2022/01/04 04:03:40;;;;;;;4.70;2.90;;;6.90;99.90;;;;;;5088749;28;20479;-58
2022/01/04 04:06:05;;;;;;;3.05;2.75;;;6.90;99.90;;;;;;5090457;28;20028;-59
2022/01/04 04:08:31;;;;;;;5.43;2.90;;;6.90;99.90;;;;;;5090298;28;20024;-59
2022/01/04 04:10:57;;;;;;;3.05;2.75;;;6.90;99.90;;;;;;5090620;28;20036;-58
2022/01/04 04:13:23;;;;;;;3.78;2.70;;;6.80;99.90;;;;;;5089860;28;20522;-58
2022/01/04 04:15:48;;;;;;;2.65;2.45;;;6.80;99.90;;;;;;5090295;28;20119;-59
2022/01/04 04:18:16;;;;;;;3.17;2.80;;;6.80;99.90;;;;;;5090329;28;20063;-59
2022/01/04 04:20:42;;;;;;;3.33;2.60;;;6.70;99.90;;;;;;5089891;28;20081;-58
2022/01/04 04:23:10;;;;;;;4.68;4.07;;;6.70;99.90;;;;;;5071982;28;20035;-59
2022/01/04 04:25:35;;;;;;;6.32;3.08;;;6.70;99.90;;;;;;5090062;28;20024;-59
2022/01/04 04:28:01;;;;;;;3.20;2.90;;;6.70;99.90;;;;;;5067041;28;20078;-59
2022/01/04 04:30:27;;;;;;;3.80;2.85;;;6.70;99.90;;;;;;5071961;28;20116;-59
2022/01/04 04:32:53;;;;;;;3.10;2.78;;;6.70;99.90;;;;;;5089913;28;20028;-58
2022/01/04 04:35:18;;;;;;;3.85;2.97;;;6.60;99.90;;;;;;5090243;28;20036;-59
2022/01/04 04:37:44;;;;;;;3.42;2.83;;;6.70;99.90;;;;;;5090056;28;20039;-59
2022/01/04 04:40:11;;;;;;;7.25;3.53;;;6.60;99.90;;;;;;5090234;28;20024;-59
2022/01/04 04:42:37;;;;;;;4.10;2.60;;;6.60;99.90;;;;;;5071660;28;20611;-58
2022/01/04 04:45:04;;;;;;;4.15;2.83;;;6.60;99.90;;;;;;5089392;28;20051;-58
2022/01/04 04:47:30;;;;;;;5.25;2.60;;;6.60;99.90;;;;;;5089556;28;20054;-58
2022/01/04 04:49:56;;;;;;;6.53;3.05;;;6.60;99.90;;;;;;5090289;28;20487;-59
2022/01/04 04:52:22;;;;;;;3.85;3.08;;;6.60;99.90;;;;;;5089879;28;20211;-59
2022/01/04 04:54:48;;;;;;;5.97;3.05;;;6.60;99.90;;;;;;5032368;28;1121690;-59
2022/01/04 04:57:15;;;;;;;3.35;2.38;;;6.70;99.90;;;;;;5090897;28;20107;-59
2022/01/04 04:59:41;;;;;;;4.10;2.53;;;6.60;99.90;;;;;;5090263;28;20024;-59
2022/01/04 05:02:09;;;;;;;7.68;2.90;;;6.60;99.90;;;;;;5089686;28;20020;-59
2022/01/04 05:04:35;;;;;;;5.53;3.35;;;6.60;99.90;;;;;;5090605;28;20106;-59
2022/01/04 05:07:01;;;;;;;3.67;2.80;;;6.60;99.90;;;;;;5091082;28;20024;-58
2022/01/04 05:09:27;;;;;;;3.25;3.05;;;6.60;99.90;;;;;;5090214;28;20034;-59
2022/01/04 05:11:53;;;;;;;7.72;3.47;;;6.50;99.90;;;;;;5090881;28;20043;-59
2022/01/04 05:14:19;;;;;;;5.00;3.08;;;6.50;99.90;;;;;;5090392;28;20016;-59
2022/01/04 05:16:44;;;;;;;6.95;3.08;;;6.50;99.90;;;;;;5094453;28;20106;-58
2022/01/04 05:19:10;;;;;;;3.97;3.00;;;6.60;99.90;;;;;;5094542;28;20035;-59
2022/01/04 05:21:36;;;;;;;3.17;2.90;;;6.60;99.90;;;;;;5094004;28;20422;-58
2022/01/04 05:24:02;;;;;;;3.63;2.60;;;6.60;99.90;;;;;;5094132;28;20016;-59
2022/01/04 05:26:28;;;;;;;4.22;3.00;;;6.60;99.90;;;;;;5094077;28;20081;-59
2022/01/04 05:28:53;;;;;;;5.55;3.72;;;6.60;99.90;;;;;;5094121;28;20024;-58
2022/01/04 05:31:19;;;;;;;3.13;2.83;;;6.60;99.90;;;;;;5093846;28;20437;-59
2022/01/04 05:33:45;;;;;;;18.20;8.07;;;6.60;99.90;;;;;;5094123;28;20462;-59
2022/01/04 05:36:10;;;;;;;14.88;7.78;;;6.60;99.90;;;;;;5093969;28;20030;-58
2022/01/04 05:38:36;;;;;;;9.27;3.60;;;6.60;99.90;;;;;;5093167;28;20059;-59
2022/01/04 05:41:02;;;;;;;5.40;3.53;;;6.60;99.90;;;;;;5093484;28;20039;-59
2022/01/04 05:43:28;;;;;;;9.50;3.35;;;6.50;99.90;;;;;;5093368;28;20020;-59
2022/01/04 05:45:53;;;;;;;3.78;2.92;;;6.50;99.90;;;;;;5075332;28;20044;-59
2022/01/04 05:48:20;;;;;;;4.88;3.33;;;6.50;99.90;;;;;;5093309;28;20028;-59
2022/01/04 05:50:47;;;;;;;3.35;2.60;;;6.50;99.90;;;;;;5093980;28;20039;-59
2022/01/04 05:53:13;;;;;;;3.03;2.83;;;6.40;99.90;;;;;;5093199;28;20021;-59
2022/01/04 05:55:38;;;;;;;3.40;3.10;;;6.40;99.90;;;;;;5093281;28;20052;-59
2022/01/04 05:58:04;;;;;;;6.80;3.28;;;6.40;99.90;;;;;;5093018;28;20021;-58
2022/01/04 06:00:30;;;;;;;7.45;3.88;;;6.40;99.90;;;;;;5093167;28;20017;-59
2022/01/04 06:02:58;;;;;;;8.27;3.60;;;6.30;99.90;;;;;;5093525;28;20020;-59
2022/01/04 06:05:24;;;;;;;6.65;3.85;;;6.30;99.90;;;;;;5093368;28;20395;-58
2022/01/04 06:07:50;;;;;;;4.63;3.85;;;6.30;99.90;;;;;;5092956;28;20023;-59
2022/01/04 06:10:16;;;;;;;6.05;3.25;;;6.30;99.90;;;;;;5093025;28;20024;-58
2022/01/04 06:15:09;;;;;;;14.07;8.25;;;6.40;99.90;;;;;;5093289;28;20032;-59
2022/01/04 06:17:38;;;;;;;9.38;6.07;;;6.50;99.90;;;;;;5086345;28;20047;-59
2022/01/04 06:20:13;;;;;;;5.30;4.18;;;6.50;99.90;;;;;;5072243;28;20040;-59
2022/01/04 06:22:39;;;;;;;5.55;4.43;;;6.60;99.90;;;;;;5092542;28;20477;-58
2022/01/04 06:25:09;;;;;;;9.63;6.13;;;6.70;99.90;;;;;;5069208;28;20028;-58
2022/01/04 06:27:35;;;;;;;5.57;5.00;;;6.70;99.90;;;;;;5073518;28;20028;-59
2022/01/04 06:30:01;;;;;;;8.23;4.05;;;6.80;99.90;;;;;;5092880;28;20031;-59
2022/01/04 06:32:27;;;;;;;6.40;5.35;;;6.70;99.90;;;;;;5092733;28;20028;-59
2022/01/04 06:34:53;;;;;;;9.77;5.65;;;6.70;99.90;;;;;;5092340;28;20446;-59
2022/01/04 06:37:19;;;;;;;16.35;10.30;;;6.70;99.90;;;;;;5092663;28;20423;-59
2022/01/04 06:39:45;;;;;;;3.65;3.20;;;6.60;99.90;;;;;;5092210;28;20036;-59
2022/01/04 06:42:12;;;;;;;7.63;3.90;;;6.70;99.90;;;;;;5092203;28;20028;-59
2022/01/04 06:44:38;;;;;;;4.35;3.92;;;6.70;99.90;;;;;;5092462;28;20057;-59
2022/01/04 06:47:04;;;;;;;10.60;5.47;;;6.70;99.90;;;;;;5092775;28;20062;-59
2022/01/04 06:49:30;;;;;;;5.68;3.92;;;6.60;99.90;;;;;;5092187;28;20487;-59
2022/01/04 06:51:56;;;;;;;8.43;5.68;;;6.50;99.90;;;;;;5092245;28;20030;-58
2022/01/04 06:54:22;;;;;;;23.05;13.13;;;6.50;99.90;;;;;;5092239;28;20107;-58
2022/01/04 06:56:48;;;;;;;15.23;10.75;;;6.50;99.90;;;;;;5092138;28;20020;-59
2022/01/04 06:59:15;;;;;;;15.25;12.10;;;6.40;99.90;;;;;;5092062;28;20107;-59
2022/01/04 07:01:41;;;;;;;20.42;11.48;;;6.50;99.90;;;;;;5091817;28;20028;-59
2022/01/04 07:04:07;;;;;;;5.60;3.92;;;6.50;99.90;;;;;;5091796;28;20022;-59
2022/01/04 07:06:34;;;;;;;4.93;3.65;;;6.60;99.90;;;;;;5073864;28;20031;-59
2022/01/04 07:09:00;;;;;;;7.07;5.30;;;6.60;99.90;;;;;;5092209;28;20024;-59
2022/01/04 07:11:28;;;;;;;6.47;4.90;;;6.50;99.90;;;;;;5092100;28;20031;-59
2022/01/04 07:13:53;;;;;;;9.43;5.57;;;6.50;99.90;;;;;;5091364;28;20536;-59
2022/01/04 07:16:19;;;;;;;11.48;5.00;;;6.50;99.90;;;;;;5091607;28;20028;-59
2022/01/04 07:18:48;;;;;;;8.27;6.40;;;6.40;99.90;;;;;;5091589;28;20032;-58
2022/01/04 07:21:17;;;;;;;6.82;6.13;;;6.50;99.90;;;;;;5074617;28;20036;-58
2022/01/04 07:23:44;;;;;;;6.50;5.00;;;6.60;99.90;;;;;;5091818;28;20024;-59
2022/01/04 07:26:17;;;;;;;9.80;5.20;;;6.60;99.90;;;;;;5091725;28;20181;-59
2022/01/04 07:28:45;;;;;;;11.65;8.02;;;6.60;99.90;;;;;;5091624;28;20039;-59
2022/01/04 07:31:11;;;;;;;14.18;7.07;;;6.60;99.90;;;;;;5092016;28;20032;-58
2022/01/04 07:33:38;;;;;;;6.97;5.63;;;6.60;99.90;;;;;;5091103;28;20496;-59
2022/01/04 07:36:06;;;;;;;9.18;7.45;;;6.70;99.90;;;;;;5090072;28;20076;-58
2022/01/04 07:38:32;;;;;;;9.55;6.38;;;6.70;99.90;;;;;;5091127;28;20017;-59
2022/01/04 07:40:58;;;;;;;6.78;4.55;;;6.80;99.90;;;;;;5091442;28;20390;-59
2022/01/04 07:43:23;;;;;;;20.30;12.30;;;6.90;99.90;;;;;;5090272;28;20032;-58
2022/01/04 07:45:49;;;;;;;11.00;6.78;;;6.80;99.90;;;;;;5090173;28;20036;-59
2022/01/04 07:48:15;;;;;;;8.82;5.97;;;6.80;99.90;;;;;;5091180;28;20016;-59
2022/01/04 07:50:41;;;;;;;6.03;5.43;;;6.90;99.90;;;;;;5091282;28;20375;-59
2022/01/04 07:53:07;;;;;;;9.35;5.95;;;6.90;99.90;;;;;;5091368;28;20031;-59
2022/01/04 07:55:34;;;;;;;5.78;4.47;;;6.90;99.90;;;;;;5090056;28;20127;-59
2022/01/04 07:58:00;;;;;;;5.25;4.32;;;6.90;99.90;;;;;;5090623;28;20049;-59
2022/01/04 08:00:26;;;;;;;5.82;3.85;;;7.10;99.90;;;;;;5076119;28;20490;-59
2022/01/04 08:02:53;;;;;;;4.75;3.90;;;7.20;99.90;;;;;;5091061;28;20111;-58
2022/01/04 08:05:19;;;;;;;3.88;3.45;;;7.20;99.90;;;;;;5090784;28;20036;-58
2022/01/04 08:07:45;;;;;;;3.47;3.03;;;7.10;99.90;;;;;;5090898;28;20035;-58
2022/01/04 08:10:11;;;;;;;4.65;3.47;;;7.00;99.90;;;;;;5090034;28;20115;-59
2022/01/04 08:12:37;;;;;;;5.55;5.00;;;7.00;99.90;;;;;;5073239;28;20547;-57
2022/01/04 08:15:04;;;;;;;4.75;4.35;;;7.10;99.90;;;;;;5056235;28;20032;-59
2022/01/04 08:17:31;;;;;;;6.20;3.97;;;7.10;99.90;;;;;;5090940;28;20331;-58
2022/01/04 08:19:57;;;;;;;6.00;4.20;;;7.20;99.90;;;;;;5091054;28;20024;-59
2022/01/04 08:22:23;;;;;;;4.90;4.40;;;7.20;99.90;;;;;;5091228;28;20031;-58
2022/01/04 08:24:49;;;;;;;81.35;40.03;;;7.20;99.90;;;;;;5091062;28;20558;-59
2022/01/04 08:27:15;;;;;;;24.27;12.80;;;7.20;99.90;;;;;;5091144;28;20028;-58
2022/01/04 08:29:41;;;;;;;10.73;6.35;;;7.20;99.90;;;;;;5090352;28;20096;-58
2022/01/04 08:32:07;;;;;;;25.90;6.85;;;7.20;99.90;;;;;;5091243;28;20466;-59
2022/01/04 08:34:33;;;;;;;5.25;3.88;;;7.30;99.90;;;;;;5090660;28;20039;-59
2022/01/04 08:36:58;;;;;;;144.55;48.78;;;7.40;99.90;;;;;;5090747;28;20024;-58
2022/01/04 08:39:26;;;;;;;17.25;9.43;;;7.50;99.90;;;;;;5072369;28;20016;-59
2022/01/04 08:41:55;;;;;;;6.70;5.20;;;7.60;99.90;;;;;;5091123;28;20103;-59
2022/01/04 08:44:21;;;;;;;13.27;5.68;;;7.60;99.90;;;;;;5090572;28;20050;-58
2022/01/04 08:46:47;;;;;;;10.55;6.70;;;7.40;99.90;;;;;;5074143;28;20122;-59
2022/01/04 08:49:13;;;;;;;6.22;3.60;;;7.50;99.90;;;;;;5072579;28;20503;-59
2022/01/04 08:51:39;;;;;;;16.77;14.27;;;7.60;99.90;;;;;;5094313;28;20028;-59
2022/01/04 08:54:05;;;;;;;10.57;5.53;;;7.60;99.90;;;;;;5094434;28;20024;-58
2022/01/04 08:56:32;;;;;;;4.90;3.90;;;7.60;99.90;;;;;;5094503;28;20490;-58
2022/01/04 08:58:58;;;;;;;5.85;3.72;;;7.70;99.90;;;;;;5094552;28;20062;-59
2022/01/04 09:01:23;;;;;;;4.70;4.30;;;7.70;99.90;;;;;;5071754;28;20062;-59
2022/01/04 09:03:49;;;;;;;8.50;4.70;;;7.70;99.90;;;;;;5094448;28;20032;-59
2022/01/04 09:06:15;;;;;;;7.47;4.72;;;7.80;99.90;;;;;;5094362;28;20028;-59
2022/01/04 09:08:44;;;;;;;5.45;4.15;;;7.80;99.90;;;;;;5094367;28;20534;-59
2022/01/04 09:11:10;;;;;;;5.53;4.30;;;7.90;99.90;;;;;;5094298;28;20047;-59
2022/01/04 09:13:40;;;;;;;5.60;4.78;;;7.90;99.90;;;;;;5094123;28;20028;-59
2022/01/04 09:18:45;;;;;;;3.63;3.33;;;8.00;99.90;;;;;;5093644;28;20035;-59
2022/01/04 09:21:14;;;;;;;3.30;3.00;;;8.00;99.90;;;;;;5094089;28;20020;-58
2022/01/04 09:23:40;;;;;;;7.13;4.07;;;7.90;99.90;;;;;;5093621;28;20071;-59
2022/01/04 09:26:07;;;;;;;4.60;3.17;;;7.80;99.90;;;;;;5094066;28;20419;-58
2022/01/04 09:28:33;;;;;;;6.78;3.30;;;7.80;99.90;;;;;;5093725;28;20036;-59
2022/01/04 09:30:59;;;;;;;10.38;5.93;;;7.90;99.90;;;;;;5094244;28;20031;-59
2022/01/04 09:33:24;;;;;;;6.32;5.22;;;7.80;99.90;;;;;;5093924;28;20031;-59
2022/01/04 09:35:51;;;;;;;7.43;4.03;;;7.90;99.90;;;;;;5093621;28;20624;-59
2022/01/04 09:38:18;;;;;;;4.43;2.92;;;7.90;99.90;;;;;;5058894;28;20032;-58
2022/01/04 09:40:45;;;;;;;9.85;6.97;;;8.00;99.90;;;;;;5094004;28;20035;-59
2022/01/04 09:43:11;;;;;;;6.30;4.28;;;7.90;99.90;;;;;;5093839;28;20103;-59
2022/01/04 09:45:37;;;;;;;5.25;3.65;;;7.90;99.90;;;;;;5093692;28;20034;-59
2022/01/04 09:48:04;;;;;;;5.53;3.72;;;8.00;99.90;;;;;;5088814;28;20025;-59
2022/01/04 09:50:32;;;;;;;13.35;4.32;;;8.00;99.90;;;;;;5091799;28;20043;-59
2022/01/04 09:52:59;;;;;;;7.28;3.78;;;8.00;99.90;;;;;;5093169;28;20050;-59
2022/01/04 09:55:24;;;;;;;6.95;3.40;;;8.00;99.90;;;;;;5093222;28;20625;-59
2022/01/04 09:57:50;;;;;;;4.43;3.00;;;8.00;99.90;;;;;;5093360;28;20028;-58
2022/01/04 10:00:17;;;;;;;5.45;4.40;;;7.90;99.90;;;;;;5093342;28;20051;-59
2022/01/04 10:02:46;;;;;;;4.22;3.47;;;7.90;99.90;;;;;;5070577;28;20020;-59
2022/01/04 10:05:15;;;;;;;6.80;3.47;;;8.00;99.90;;;;;;5093239;28;20394;-59
2022/01/04 10:07:41;;;;;;;5.55;3.20;;;8.00;99.90;;;;;;5093206;28;20115;-59
2022/01/04 10:10:11;;;;;;;5.22;3.80;;;8.10;99.90;;;;;;5092972;28;20035;-59
2022/01/04 10:12:52;;;;;;;4.82;3.20;;;8.10;99.90;;;;;;5093053;28;20073;-59
2022/01/04 10:15:43;;;;;;;5.80;3.45;;;8.10;99.90;;;;;;5092671;28;20034;-59
2022/01/04 10:18:17;;;;;;;9.05;3.58;;;8.20;99.90;;;;;;5092920;28;20121;-59
2022/01/04 10:21:09;;;;;;;6.22;3.60;;;8.20;99.90;;;;;;5092663;28;20020;-59
2022/01/04 10:23:44;;;;;;;3.67;3.00;;;8.20;99.90;;;;;;5092751;28;20358;-59
2022/01/04 10:26:10;;;;;;;4.47;3.40;;;8.50;99.90;;;;;;5081319;28;20161;-59
2022/01/04 10:28:41;;;;;;;11.35;3.70;;;8.50;99.90;;;;;;5092519;28;20103;-59
2022/01/04 10:31:09;;;;;;;4.57;3.50;;;8.60;99.90;;;;;;5092312;28;20028;-59
2022/01/04 10:33:36;;;;;;;3.92;3.53;;;8.60;99.90;;;;;;5092346;28;20024;-59
2022/01/04 10:36:11;;;;;;;8.07;3.33;;;8.60;99.90;;;;;;5092466;28;20384;-59
2022/01/04 10:38:46;;;;;;;5.35;3.85;;;8.80;99.90;;;;;;5092571;28;20103;-59
2022/01/04 10:41:25;;;;;;;6.97;4.75;;;8.80;99.90;;;;;;5092336;28;20028;-59
2022/01/04 10:43:52;;;;;;;3.55;2.95;;;8.70;99.90;;;;;;5092521;28;20012;-59
2022/01/04 10:46:30;;;;;;;5.47;4.15;;;8.80;99.90;;;;;;5091981;28;20452;-59
2022/01/04 10:48:55;;;;;;;11.98;9.57;;;8.60;99.90;;;;;;5091928;28;20032;-59
2022/01/04 10:51:22;;;;;;;13.50;7.00;;;8.60;99.90;;;;;;5092171;28;20062;-59
2022/01/04 10:53:57;;;;;;;18.75;11.40;;;8.50;99.90;;;;;;5091964;28;20039;-59
2022/01/04 10:56:34;;;;;;;12.25;4.47;;;8.50;99.90;;;;;;5091579;28;20047;-59
2022/01/04 10:59:03;;;;;;;10.32;5.10;;;8.40;99.90;;;;;;5092062;28;20394;-59
2022/01/04 11:01:37;;;;;;;12.10;7.65;;;8.30;99.90;;;;;;5091743;28;20506;-59
2022/01/04 11:04:03;;;;;;;20.63;13.40;;;8.30;99.90;;;;;;5091996;28;20499;-59
2022/01/04 11:06:42;;;;;;;8.68;5.63;;;8.40;99.90;;;;;;5092225;28;20131;-59
2022/01/04 11:09:09;;;;;;;7.07;5.22;;;8.50;99.90;;;;;;5092106;28;20103;-59
2022/01/04 11:11:35;;;;;;;4.25;3.03;;;8.70;99.90;;;;;;5091880;28;20051;-58
2022/01/04 11:14:01;;;;;;;6.70;3.90;;;8.80;99.90;;;;;;5091160;28;20519;-59
2022/01/04 11:16:28;;;;;;;37.08;14.60;;;9.00;99.90;;;;;;5091376;28;20059;-58
2022/01/04 11:18:56;;;;;;;37.03;12.05;;;9.20;99.90;;;;;;5073511;28;20020;-58
2022/01/04 11:21:25;;;;;;;14.45;6.85;;;9.30;99.90;;;;;;5091055;28;20027;-59
2022/01/04 11:23:54;;;;;;;7.13;4.55;;;9.40;99.90;;;;;;5091887;28;20469;-59
2022/01/04 11:26:20;;;;;;;28.10;12.57;;;9.30;99.90;;;;;;5073649;28;20024;-59
2022/01/04 11:28:48;;;;;;;24.55;9.35;;;9.30;99.90;;;;;;5091410;28;20028;-59
2022/01/04 11:31:44;;;;;;;64.68;28.80;;;9.40;99.90;;;;;;5072357;28;20038;-59
2022/01/04 11:34:16;;;;;;;61.13;20.20;;;9.60;99.90;;;;;;5091837;28;20016;-59
2022/01/04 11:36:46;;;;;;;26.20;8.27;;;9.70;99.90;;;;;;5091674;28;20040;-59
2022/01/04 11:39:31;;;;;;;6.35;3.88;;;9.70;99.90;;;;;;5091020;28;20419;-59
2022/01/04 11:41:59;;;;;;;17.88;7.50;;;9.80;99.90;;;;;;5091302;28;20367;-59
2022/01/04 11:44:28;;;;;;;36.15;15.10;;;10.00;99.90;;;;;;5091174;28;20016;-59
2022/01/04 11:47:03;;;;;;;15.73;8.23;;;10.10;99.90;;;;;;5091549;28;20058;-59
2022/01/04 11:49:30;;;;;;;15.90;8.55;;;10.20;99.90;;;;;;5090966;28;20107;-59
2022/01/04 11:51:56;;;;;;;17.65;9.00;;;10.30;99.90;;;;;;5091255;28;20091;-59
2022/01/04 11:54:33;;;;;;;20.50;9.02;;;10.20;99.90;;;;;;5090979;28;20064;-59
2022/01/04 11:56:59;;;;;;;36.95;12.98;;;10.20;99.90;;;;;;5091419;28;20089;-59
2022/01/04 11:59:40;;;;;;;13.05;5.20;;;10.30;99.90;;;;;;5091231;28;20028;-59
2022/01/04 12:02:32;;;;;;;7.90;4.68;;;10.50;99.90;;;;;;5090818;28;20020;-59
2022/01/04 12:04:58;;;;;;;5.65;3.40;;;10.50;99.90;;;;;;5091369;28;20028;-59
2022/01/04 12:07:49;;;;;;;5.28;3.85;;;10.40;99.90;;;;;;5090847;28;20039;-59
2022/01/04 12:10:20;;;;;;;5.15;2.92;;;10.40;99.90;;;;;;5090911;28;20035;-59
2022/01/04 12:13:35;;;;;;;12.20;6.15;;;10.50;99.90;;;;;;5091222;28;20020;-59
2022/01/04 12:16:05;;;;;;;8.35;4.15;;;10.40;99.90;;;;;;5036450;28;20051;-59
2022/01/04 12:18:37;;;;;;;10.63;6.50;;;10.60;99.90;;;;;;5071062;28;20025;-59
2022/01/04 12:24:11;;;;;;;6.20;3.90;;;10.50;99.90;;;;;;5060204;28;20571;-59
2022/01/04 12:26:38;;;;;;;7.30;4.97;;;10.80;99.90;;;;;;5095193;28;20361;-59
2022/01/04 12:29:10;;;;;;;7.65;4.20;;;10.90;99.90;;;;;;5094972;28;20024;-59
2022/01/04 12:31:44;;;;;;;10.40;6.03;;;11.00;99.90;;;;;;5074758;28;20021;-59
2022/01/04 12:34:25;;;;;;;5.70;4.50;;;10.90;99.90;;;;;;5076912;28;20414;-59
2022/01/04 12:36:52;;;;;;;4.65;3.13;;;11.00;99.90;;;;;;5094921;28;20525;-59
2022/01/04 12:39:29;;;;;;;6.65;4.10;;;11.30;99.90;;;;;;5094985;28;20525;-59
2022/01/04 12:41:55;;;;;;;9.38;5.50;;;11.30;99.90;;;;;;5094997;28;20041;-59
2022/01/04 12:44:27;;;;;;;5.00;3.38;;;11.40;99.90;;;;;;5076693;28;20391;-59
2022/01/04 12:46:53;;;;;;;5.65;2.92;;;11.80;99.90;;;;;;5063412;28;20534;-59
2022/01/04 12:49:22;;;;;;;4.65;4.07;;;12.40;99.90;;;;;;5077661;28;20035;-59
2022/01/04 12:51:52;;;;;;;6.63;4.60;;;12.70;99.90;;;;;;5094421;28;20030;-59
2022/01/04 12:54:51;;;;;;;5.55;3.67;;;12.70;99.90;;;;;;5094031;28;20399;-59
2022/01/04 12:57:22;;;;;;;6.00;3.30;;;12.90;99.90;;;;;;5076946;28;20074;-59
2022/01/04 12:59:52;;;;;;;5.22;3.67;;;12.60;99.90;;;;;;5094278;28;20024;-59
2022/01/04 13:02:21;;;;;;;4.43;2.92;;;12.60;99.90;;;;;;5094344;28;20031;-59
2022/01/04 13:04:52;;;;;;;5.47;3.75;;;12.50;99.90;;;;;;5069105;28;20031;-59
2022/01/04 13:07:26;;;;;;;18.30;9.95;;;12.50;99.90;;;;;;5074470;28;20502;-59
2022/01/04 13:10:04;;;;;;;3.63;2.88;;;12.40;99.90;;;;;;5082357;28;20074;-59